createdAt,value
2023-01-09T00:01:43.252Z,4.67
2023-01-09T00:04:11.648Z,4.98
2023-01-09T00:06:43.528Z,5.02
2023-01-09T00:09:12.210Z,5.11
2023-01-09T00:11:40.463Z,5.08
2023-01-09T00:14:10.904Z,5.00
2023-01-09T00:16:39.438Z,4.99
2023-01-09T00:19:07.801Z,4.86
2023-01-09T00:21:36.785Z,4.50
2023-01-09T00:24:07.074Z,4.91
2023-01-09T00:26:35.869Z,4.94
2023-01-09T00:29:04.225Z,5.08
2023-01-09T00:31:32.842Z,4.90
2023-01-09T00:34:02.625Z,4.84
2023-01-09T00:36:31.287Z,4.53
2023-01-09T00:38:59.860Z,4.91
2023-01-09T00:41:32.653Z,4.76
2023-01-09T00:44:06.437Z,4.96
2023-01-09T00:46:40.093Z,4.85
2023-01-09T00:49:09.843Z,4.63
2023-01-09T00:51:39.327Z,4.60
2023-01-09T00:54:07.789Z,4.66
2023-01-09T00:56:38.300Z,4.30
2023-01-09T00:59:07.546Z,5.04
2023-01-09T01:01:35.953Z,5.19
2023-01-09T01:04:24.676Z,4.75
2023-01-09T01:07:10.536Z,5.14
2023-01-09T01:09:39.003Z,4.97
2023-01-09T01:12:08.782Z,4.87
2023-01-09T01:14:37.759Z,4.44
2023-01-09T01:17:07.453Z,4.76
2023-01-09T01:19:36.630Z,4.67
2023-01-09T01:22:04.995Z,4.18
2023-01-09T01:24:33.679Z,4.13
2023-01-09T01:27:02.104Z,3.42
2023-01-09T01:29:31.821Z,3.80
2023-01-09T01:32:00.246Z,4.04
2023-01-09T01:34:30.153Z,4.55
2023-01-09T01:36:58.384Z,4.36
2023-01-09T01:39:27.845Z,4.16
2023-01-09T01:41:56.197Z,3.86
2023-01-09T01:45:00.954Z,4.67
2023-01-09T01:47:35.790Z,4.09
2023-01-09T01:50:09.367Z,4.77
2023-01-09T01:52:39.046Z,4.91
2023-01-09T01:55:10.205Z,5.19
2023-01-09T01:57:41.837Z,4.83
2023-01-09T02:00:13.890Z,4.90
2023-01-09T02:02:43.721Z,4.86
2023-01-09T02:05:13.202Z,5.07
2023-01-09T02:07:41.576Z,5.17
2023-01-09T02:10:11.185Z,4.97
2023-01-09T02:12:39.494Z,4.45
2023-01-09T02:15:12.945Z,4.77
2023-01-09T02:18:16.835Z,4.95
2023-01-09T02:20:58.417Z,4.33
2023-01-09T02:24:00.845Z,3.97
2023-01-09T02:26:43.422Z,4.51
2023-01-09T02:29:47.135Z,4.44
2023-01-09T02:32:28.423Z,4.46
2023-01-09T02:35:08.467Z,4.34
2023-01-09T02:37:46.216Z,3.78
2023-01-09T02:40:23.675Z,4.83
2023-01-09T02:42:53.548Z,4.96
2023-01-09T02:45:21.933Z,4.90
2023-01-09T02:47:51.743Z,3.98
2023-01-09T02:50:23.885Z,4.78
2023-01-09T02:53:15.309Z,4.07
2023-01-09T02:55:55.735Z,4.32
2023-01-09T02:58:36.148Z,4.03
2023-01-09T03:01:19.782Z,4.30
2023-01-09T03:03:57.654Z,3.89
2023-01-09T03:06:33.743Z,3.85
2023-01-09T03:09:08.262Z,4.24
2023-01-09T03:11:41.533Z,3.97
2023-01-09T03:14:15.840Z,4.25
2023-01-09T03:16:49.741Z,4.04
2023-01-09T03:19:22.649Z,4.40
2023-01-09T03:21:52.398Z,4.43
2023-01-09T03:24:20.764Z,4.67
2023-01-09T03:26:49.254Z,4.39
2023-01-09T03:29:17.577Z,4.65
2023-01-09T03:31:45.994Z,4.51
2023-01-09T03:34:14.571Z,4.33
2023-01-09T03:36:44.298Z,4.05
2023-01-09T03:39:12.649Z,4.41
2023-01-09T03:41:40.986Z,3.79
2023-01-09T03:44:09.186Z,4.31
2023-01-09T03:46:37.521Z,4.68
2023-01-09T03:49:05.757Z,4.69
2023-01-09T03:51:33.957Z,4.88
2023-01-09T03:54:03.656Z,4.90
2023-01-09T03:56:31.955Z,4.70
2023-01-09T03:59:00.304Z,5.05
2023-01-09T04:01:28.716Z,4.60
2023-01-09T04:03:57.147Z,4.73
2023-01-09T04:06:25.518Z,5.02
2023-01-09T04:08:53.955Z,4.66
2023-01-09T04:11:23.626Z,4.55
2023-01-09T04:13:52.001Z,4.92
2023-01-09T04:16:20.377Z,5.13
2023-01-09T04:18:48.661Z,5.28
2023-01-09T04:21:16.985Z,3.91
2023-01-09T04:23:45.850Z,4.70
2023-01-09T04:26:14.108Z,5.05
2023-01-09T04:28:43.863Z,4.48
2023-01-09T04:31:12.196Z,5.08
2023-01-09T04:33:40.691Z,5.48
2023-01-09T04:36:09.781Z,5.24
2023-01-09T04:38:38.071Z,5.36
2023-01-09T04:41:06.537Z,5.35
2023-01-09T04:43:34.801Z,5.65
2023-01-09T04:46:05.046Z,5.58
2023-01-09T04:48:33.358Z,5.67
2023-01-09T04:51:01.623Z,5.35
2023-01-09T04:53:29.915Z,5.07
2023-01-09T04:55:58.228Z,5.08
2023-01-09T04:58:26.631Z,5.22
2023-01-09T05:00:55.149Z,5.26
2023-01-09T05:03:24.991Z,5.22
2023-01-09T05:05:53.355Z,5.10
2023-01-09T05:08:21.651Z,5.06
2023-01-09T05:10:49.913Z,4.68
2023-01-09T05:13:19.170Z,4.63
2023-01-09T05:15:47.574Z,4.53
2023-01-09T05:18:17.727Z,5.03
2023-01-09T05:20:47.355Z,4.77
2023-01-09T05:23:16.630Z,4.55
2023-01-09T05:25:44.866Z,4.82
2023-01-09T05:28:13.160Z,5.06
2023-01-09T05:30:41.499Z,4.91
2023-01-09T05:33:10.034Z,4.94
2023-01-09T05:35:38.315Z,4.76
2023-01-09T05:38:08.260Z,5.20
2023-01-09T05:40:40.372Z,5.05
2023-01-09T05:43:09.116Z,5.35
2023-01-09T05:45:37.525Z,5.10
2023-01-09T05:48:06.093Z,4.79
2023-01-09T05:50:34.285Z,4.44
2023-01-09T05:53:02.555Z,5.52
2023-01-09T05:55:32.285Z,4.74
2023-01-09T05:58:04.727Z,4.69
2023-01-09T06:00:33.083Z,4.83
2023-01-09T06:03:01.639Z,4.25
2023-01-09T06:05:29.854Z,5.01
2023-01-09T06:07:58.193Z,5.10
2023-01-09T06:10:26.463Z,5.41
2023-01-09T06:12:56.115Z,5.05
2023-01-09T06:15:24.493Z,5.27
2023-01-09T06:17:52.863Z,5.30
2023-01-09T06:20:21.157Z,4.96
2023-01-09T06:22:52.155Z,4.56
2023-01-09T06:25:21.415Z,4.24
2023-01-09T06:27:50.358Z,4.61
2023-01-09T06:30:20.818Z,4.35
2023-01-09T06:32:49.768Z,4.13
2023-01-09T06:35:20.666Z,4.84
2023-01-09T06:37:49.914Z,4.18
2023-01-09T06:40:21.220Z,4.45
2023-01-09T06:42:50.699Z,4.17
2023-01-09T06:45:20.484Z,4.03
2023-01-09T06:47:50.215Z,3.89
2023-01-09T06:50:19.065Z,4.74
2023-01-09T06:52:47.424Z,4.74
2023-01-09T06:55:16.805Z,4.63
2023-01-09T06:57:45.303Z,4.62
2023-01-09T07:00:14.383Z,4.16
2023-01-09T07:02:44.080Z,4.30
2023-01-09T07:05:12.822Z,4.50
2023-01-09T07:07:41.496Z,4.75
2023-01-09T07:10:11.428Z,4.98
2023-01-09T07:12:39.677Z,4.72
2023-01-09T07:15:09.067Z,4.37
2023-01-09T07:17:37.398Z,4.51
2023-01-09T07:20:08.529Z,4.84
2023-01-09T07:22:36.847Z,4.81
2023-01-09T07:25:05.616Z,4.99
2023-01-09T07:27:33.873Z,4.33
2023-01-09T07:30:02.090Z,4.34
2023-01-09T07:32:30.476Z,4.77
2023-01-09T07:34:58.963Z,5.25
2023-01-09T07:37:28.728Z,5.14
2023-01-09T07:39:57.024Z,5.25
2023-01-09T07:42:25.315Z,5.31
2023-01-09T07:44:53.635Z,5.44
2023-01-09T07:47:22.102Z,5.33
2023-01-09T07:49:50.344Z,5.44
2023-01-09T07:52:18.548Z,5.56
2023-01-09T07:54:48.328Z,6.00
2023-01-09T07:57:16.570Z,6.25
2023-01-09T07:59:44.888Z,6.45
2023-01-09T08:02:13.307Z,7.03
2023-01-09T08:04:41.604Z,6.88
2023-01-09T08:07:09.912Z,6.95
2023-01-09T08:09:38.152Z,6.77
2023-01-09T08:12:08.045Z,6.81
2023-01-09T08:14:37.017Z,5.97
2023-01-09T08:17:05.395Z,6.01
2023-01-09T08:19:33.754Z,6.80
2023-01-09T08:22:01.995Z,7.00
2023-01-09T08:24:32.876Z,6.48
2023-01-09T08:27:01.127Z,6.51
2023-01-09T08:29:31.092Z,6.40
2023-01-09T08:31:59.433Z,6.59
2023-01-09T08:34:27.917Z,7.00
2023-01-09T08:36:56.323Z,7.38
2023-01-09T08:39:24.520Z,7.03
2023-01-09T08:42:10.091Z,6.75
2023-01-09T08:44:57.456Z,6.94
2023-01-09T08:47:26.243Z,7.41
2023-01-09T08:49:54.563Z,7.28
2023-01-09T08:52:22.790Z,7.25
2023-01-09T08:54:51.071Z,6.42
2023-01-09T08:57:19.628Z,5.99
2023-01-09T08:59:49.385Z,6.03
2023-01-09T09:02:17.720Z,6.45
2023-01-09T09:04:46.405Z,7.28
2023-01-09T09:07:15.429Z,7.46
2023-01-09T09:09:43.724Z,7.26
2023-01-09T09:12:11.942Z,7.12
2023-01-09T09:14:57.892Z,7.18
2023-01-09T09:17:29.041Z,7.46
2023-01-09T09:19:57.272Z,7.59
2023-01-09T09:22:25.614Z,8.72
2023-01-09T09:24:53.850Z,9.78
2023-01-09T09:27:22.103Z,9.95
2023-01-09T09:29:50.399Z,9.66
2023-01-09T09:32:18.690Z,10.90
2023-01-09T09:34:48.374Z,11.15
2023-01-09T09:37:16.907Z,12.02
2023-01-09T09:39:45.214Z,11.42
2023-01-09T09:43:06.772Z,12.61
2023-01-09T09:45:49.352Z,13.93
2023-01-09T09:48:30.705Z,13.84
2023-01-09T09:51:18.520Z,13.51
2023-01-09T09:53:52.948Z,13.38
2023-01-09T09:56:24.682Z,13.55
2023-01-09T09:58:57.989Z,13.11
2023-01-09T10:01:36.005Z,13.64
2023-01-09T10:04:10.675Z,13.79
2023-01-09T10:06:44.472Z,14.20
2023-01-09T10:09:21.823Z,15.35
2023-01-09T10:11:58.362Z,14.73
2023-01-09T10:14:27.100Z,15.12
2023-01-09T10:17:28.316Z,15.40
2023-01-09T10:20:21.811Z,15.08
2023-01-09T10:23:00.720Z,15.28
2023-01-09T10:25:34.488Z,14.12
2023-01-09T10:28:21.736Z,14.38
2023-01-09T10:30:53.277Z,14.10
2023-01-09T10:33:39.750Z,13.09
2023-01-09T10:36:45.920Z,13.96
2023-01-09T10:39:22.154Z,13.58
2023-01-09T10:41:58.558Z,13.20
2023-01-09T10:44:34.866Z,14.29
2023-01-09T10:47:07.174Z,14.62
2023-01-09T10:49:37.072Z,14.07
2023-01-09T10:52:16.907Z,14.45
2023-01-09T10:54:53.285Z,14.84
2023-01-09T10:57:36.723Z,16.59
2023-01-09T11:00:06.754Z,16.95
2023-01-09T11:02:36.512Z,17.65
2023-01-09T11:05:04.933Z,18.81
2023-01-09T11:07:37.876Z,18.74
2023-01-09T11:10:11.972Z,18.12
2023-01-09T11:12:41.310Z,18.57
2023-01-09T11:15:32.078Z,18.21
2023-01-09T11:18:19.955Z,17.63
2023-01-09T11:20:48.481Z,16.97
2023-01-09T11:23:28.975Z,18.76
2023-01-09T11:26:00.333Z,18.01
2023-01-09T11:28:29.403Z,18.97
2023-01-09T11:31:01.145Z,19.41
2023-01-09T11:33:31.735Z,19.00
2023-01-09T11:36:05.386Z,19.91
2023-01-09T11:38:46.920Z,17.15
2023-01-09T11:41:20.950Z,18.88
2023-01-09T11:43:52.266Z,18.27
2023-01-09T11:46:38.870Z,16.52
2023-01-09T11:49:22.655Z,18.47
2023-01-09T11:52:15.061Z,18.08
2023-01-09T11:54:47.292Z,19.30
2023-01-09T11:57:17.564Z,19.66
2023-01-09T11:59:45.840Z,18.86
2023-01-09T12:02:38.792Z,19.25
2023-01-09T12:05:18.742Z,20.19
2023-01-09T12:08:07.132Z,20.68
2023-01-09T12:10:52.278Z,19.95
2023-01-09T12:13:38.328Z,20.27
2023-01-09T12:16:14.448Z,20.88
2023-01-09T12:19:10.295Z,20.99
2023-01-09T12:21:47.635Z,21.90
2023-01-09T12:24:56.883Z,20.31
2023-01-09T12:27:41.580Z,19.48
2023-01-09T12:30:36.219Z,19.70
2023-01-09T12:33:19.481Z,19.83
2023-01-09T12:35:55.138Z,18.45
2023-01-09T12:38:40.819Z,19.40
2023-01-09T12:41:26.105Z,19.42
2023-01-09T12:44:06.613Z,19.16
2023-01-09T12:46:41.926Z,19.12
2023-01-09T12:49:24.851Z,18.97
2023-01-09T12:52:01.490Z,18.35
2023-01-09T12:54:36.207Z,19.18
2023-01-09T12:57:10.631Z,19.16
2023-01-09T12:59:42.796Z,19.58
2023-01-09T13:02:25.336Z,18.76
2023-01-09T13:04:58.232Z,18.22
2023-01-09T13:07:31.592Z,17.45
2023-01-09T13:10:06.173Z,16.30
2023-01-09T13:12:39.797Z,16.73
2023-01-09T13:15:23.693Z,18.06
2023-01-09T13:17:57.067Z,18.90
2023-01-09T13:20:36.096Z,16.79
2023-01-09T13:23:06.541Z,17.45
2023-01-09T13:25:44.158Z,18.04
2023-01-09T13:28:20.285Z,18.14
2023-01-09T13:31:28.890Z,18.20
2023-01-09T13:34:01.532Z,17.15
2023-01-09T13:36:34.276Z,17.51
2023-01-09T13:39:03.240Z,17.37
2023-01-09T13:41:50.617Z,16.47
2023-01-09T13:44:26.218Z,16.48
2023-01-09T13:46:57.115Z,16.37
2023-01-09T13:50:06.608Z,16.05
2023-01-09T13:52:38.035Z,17.64
2023-01-09T13:55:26.102Z,16.89
2023-01-09T13:58:22.782Z,17.21
2023-01-09T14:00:54.636Z,16.33
2023-01-09T14:03:27.237Z,16.45
2023-01-09T14:06:17.861Z,16.50
2023-01-09T14:08:49.225Z,16.39
2023-01-09T14:11:27.639Z,15.61
2023-01-09T14:14:22.442Z,14.82
2023-01-09T14:16:50.912Z,14.49
2023-01-09T14:19:31.431Z,14.35
2023-01-09T14:22:02.108Z,14.59
2023-01-09T14:24:33.544Z,14.20
2023-01-09T14:27:06.095Z,14.19
2023-01-09T14:29:45.387Z,13.90
2023-01-09T14:32:39.404Z,13.99
2023-01-09T14:35:16.128Z,13.84
2023-01-09T14:37:50.983Z,13.21
2023-01-09T14:40:23.930Z,13.16
2023-01-09T14:42:55.628Z,13.44
2023-01-09T14:45:25.577Z,13.21
2023-01-09T14:47:57.724Z,11.95
2023-01-09T14:50:34.342Z,11.96
2023-01-09T14:53:08.410Z,12.33
2023-01-09T14:55:51.197Z,12.54
2023-01-09T14:58:24.899Z,12.23
2023-01-09T15:00:59.948Z,12.51
2023-01-09T15:03:33.251Z,12.21
2023-01-09T15:06:02.426Z,12.29
2023-01-09T15:08:33.702Z,12.08
2023-01-09T15:11:02.387Z,12.03
2023-01-09T15:13:38.233Z,11.59
2023-01-09T15:16:08.097Z,11.52
2023-01-09T15:18:43.179Z,10.83
2023-01-09T15:21:19.025Z,11.25
2023-01-09T15:23:48.750Z,11.11
2023-01-09T15:26:26.455Z,11.10
2023-01-09T15:29:01.399Z,10.64
2023-01-09T15:31:30.766Z,11.24
2023-01-09T15:33:59.165Z,11.05
2023-01-09T15:36:31.019Z,10.24
2023-01-09T15:39:01.497Z,10.02
2023-01-09T15:41:48.772Z,9.67
2023-01-09T15:44:20.763Z,10.05
2023-01-09T15:46:51.948Z,9.96
2023-01-09T15:49:20.775Z,9.82
2023-01-09T15:51:50.281Z,9.87
2023-01-09T15:54:28.621Z,9.81
2023-01-09T15:57:17.152Z,9.92
2023-01-09T15:59:45.425Z,9.99
2023-01-09T16:02:33.704Z,9.82
2023-01-09T16:05:07.603Z,9.86
2023-01-09T16:07:36.336Z,8.72
2023-01-09T16:10:06.730Z,9.52
2023-01-09T16:12:35.075Z,9.66
2023-01-09T16:15:03.521Z,9.92
2023-01-09T16:17:32.110Z,9.64
2023-01-09T16:20:13.448Z,9.83
2023-01-09T16:22:53.940Z,9.93
2023-01-09T16:25:30.552Z,9.67
2023-01-09T16:28:21.188Z,9.68
2023-01-09T16:30:57.909Z,9.31
2023-01-09T16:33:29.195Z,8.87
2023-01-09T16:36:00.129Z,8.91
2023-01-09T16:38:28.744Z,8.64
2023-01-09T16:41:23.933Z,8.67
2023-01-09T16:43:52.926Z,8.48
2023-01-09T16:46:22.607Z,8.64
2023-01-09T16:48:51.067Z,8.35
2023-01-09T16:51:21.695Z,8.83
2023-01-09T16:53:51.028Z,8.99
2023-01-09T16:56:24.591Z,9.11
2023-01-09T16:58:54.772Z,8.79
2023-01-09T17:01:24.023Z,9.18
2023-01-09T17:03:52.815Z,9.04
2023-01-09T17:06:24.873Z,9.12
2023-01-09T17:08:53.274Z,8.92
2023-01-09T17:11:25.590Z,9.08
2023-01-09T17:13:53.874Z,8.42
2023-01-09T17:16:22.287Z,8.97
2023-01-09T17:18:51.043Z,9.21
2023-01-09T17:21:20.935Z,8.96
2023-01-09T17:24:09.551Z,9.09
2023-01-09T17:26:57.432Z,9.12
2023-01-09T17:29:26.066Z,9.41
2023-01-09T17:31:54.377Z,9.72
2023-01-09T17:34:22.722Z,9.76
2023-01-09T17:36:51.177Z,9.75
2023-01-09T17:39:19.595Z,9.67
2023-01-09T17:41:49.376Z,9.66
2023-01-09T17:44:17.550Z,9.69
2023-01-09T17:46:46.326Z,9.19
2023-01-09T17:49:17.980Z,9.15
2023-01-09T17:51:46.747Z,9.18
2023-01-09T17:54:15.621Z,9.07
2023-01-09T17:56:46.819Z,9.39
2023-01-09T17:59:17.112Z,9.39
2023-01-09T18:01:46.335Z,9.38
2023-01-09T18:04:14.662Z,9.27
2023-01-09T18:06:43.148Z,9.49
2023-01-09T18:09:16.106Z,9.35
2023-01-09T18:11:45.160Z,9.55
2023-01-09T18:14:14.019Z,9.66
2023-01-09T18:16:45.501Z,9.46
2023-01-09T18:19:13.948Z,9.64
2023-01-09T18:21:42.235Z,9.63
2023-01-09T18:24:10.867Z,9.67
2023-01-09T18:26:39.232Z,9.77
2023-01-09T18:29:07.509Z,9.00
2023-01-09T18:31:35.798Z,9.68
2023-01-09T18:34:07.513Z,9.40
2023-01-09T18:36:35.845Z,9.67
2023-01-09T18:39:07.209Z,9.39
2023-01-09T18:41:35.687Z,9.45
2023-01-09T18:44:07.122Z,9.51
2023-01-09T18:46:35.397Z,9.36
2023-01-09T18:49:05.833Z,9.54
2023-01-09T18:51:36.091Z,9.57
2023-01-09T18:54:04.799Z,9.60
2023-01-09T18:56:33.067Z,9.77
2023-01-09T18:59:01.491Z,9.82
2023-01-09T19:01:31.005Z,9.85
2023-01-09T19:04:01.273Z,9.99
2023-01-09T19:06:31.630Z,9.50
2023-01-09T19:09:00.439Z,9.49
2023-01-09T19:11:28.816Z,9.71
2023-01-09T19:13:57.170Z,9.69
2023-01-09T19:16:25.453Z,9.40
2023-01-09T19:18:53.912Z,9.22
2023-01-09T19:21:26.865Z,9.38
2023-01-09T19:23:58.953Z,9.37
2023-01-09T19:26:28.762Z,9.42
2023-01-09T19:28:57.791Z,9.72
2023-01-09T19:31:28.705Z,9.77
2023-01-09T19:33:58.708Z,9.72
2023-01-09T19:36:27.359Z,8.44
2023-01-09T19:38:59.199Z,9.85
2023-01-09T19:41:27.950Z,9.93
2023-01-09T19:43:56.407Z,9.49
2023-01-09T19:46:26.243Z,9.09
2023-01-09T19:48:57.054Z,9.12
2023-01-09T19:51:25.620Z,9.33
2023-01-09T19:53:55.587Z,9.17
2023-01-09T19:56:27.284Z,9.07
2023-01-09T19:58:57.057Z,9.59
2023-01-09T20:01:27.665Z,9.62
2023-01-09T20:03:57.750Z,9.70
2023-01-09T20:06:27.708Z,9.92
2023-01-09T20:08:57.601Z,9.91
2023-01-09T20:11:29.091Z,9.76
2023-01-09T20:13:57.935Z,9.72
2023-01-09T20:16:28.691Z,9.97
2023-01-09T20:18:57.938Z,10.01
2023-01-09T20:21:28.004Z,10.14
2023-01-09T20:23:58.348Z,10.12
2023-01-09T20:26:28.827Z,9.93
2023-01-09T20:28:58.313Z,10.12
2023-01-09T20:31:28.933Z,9.66
2023-01-09T20:33:59.091Z,10.06
2023-01-09T20:36:30.247Z,10.30
2023-01-09T20:39:00.011Z,10.04
2023-01-09T20:41:31.534Z,9.90
2023-01-09T20:44:01.602Z,9.47
2023-01-09T20:46:32.151Z,9.09
2023-01-09T20:49:03.539Z,9.79
2023-01-09T20:51:32.275Z,9.94
2023-01-09T20:54:00.706Z,9.62
2023-01-09T20:56:32.087Z,10.02
2023-01-09T20:59:01.769Z,9.79
2023-01-09T21:01:30.208Z,9.89
2023-01-09T21:03:59.935Z,9.18
2023-01-09T21:06:29.139Z,9.90
2023-01-09T21:08:57.567Z,10.19
2023-01-09T21:11:25.929Z,9.98
2023-01-09T21:13:55.634Z,10.11
2023-01-09T21:16:25.737Z,9.42
2023-01-09T21:18:55.469Z,9.68
2023-01-09T21:21:27.381Z,9.97
2023-01-09T21:23:57.861Z,10.08
2023-01-09T21:26:29.151Z,10.04
2023-01-09T21:29:01.675Z,9.73
2023-01-09T21:31:34.903Z,9.58
2023-01-09T21:34:05.782Z,9.75
2023-01-09T21:36:35.689Z,10.00
2023-01-09T21:39:07.677Z,9.89
2023-01-09T21:41:53.955Z,9.51
2023-01-09T21:44:41.006Z,9.91
2023-01-09T21:47:09.559Z,10.01
2023-01-09T21:49:44.112Z,9.89
2023-01-09T21:52:13.045Z,9.94
2023-01-09T21:54:42.256Z,9.68
2023-01-09T21:57:10.542Z,9.89
2023-01-09T21:59:40.187Z,10.00
2023-01-09T22:02:11.475Z,9.97
2023-01-09T22:04:40.234Z,9.80
2023-01-09T22:07:10.107Z,9.57
2023-01-09T22:09:38.605Z,9.48
2023-01-09T22:12:07.252Z,9.88
2023-01-09T22:14:35.557Z,9.99
2023-01-09T22:17:05.224Z,10.29
2023-01-09T22:19:33.680Z,10.04
2023-01-09T22:22:03.818Z,10.13
2023-01-09T22:24:32.054Z,10.28
2023-01-09T22:27:00.465Z,10.07
2023-01-09T22:29:28.787Z,9.36
2023-01-09T22:31:57.140Z,8.98
2023-01-09T22:34:27.237Z,8.97
2023-01-09T22:36:55.622Z,8.78
2023-01-09T22:39:23.881Z,8.62
2023-01-09T22:41:55.270Z,8.77
2023-01-09T22:44:23.687Z,8.75
2023-01-09T22:46:52.008Z,9.64
2023-01-09T22:49:20.351Z,9.79
2023-01-09T22:51:50.059Z,9.99
2023-01-09T22:54:19.522Z,9.95
2023-01-09T22:56:47.850Z,9.40
2023-01-09T22:59:16.205Z,9.31
2023-01-09T23:01:44.569Z,9.06
2023-01-09T23:04:13.821Z,9.43
2023-01-09T23:06:42.083Z,9.35
2023-01-09T23:09:11.883Z,9.89
2023-01-09T23:11:57.440Z,10.14
2023-01-09T23:14:25.801Z,10.31
2023-01-09T23:16:54.175Z,9.05
2023-01-09T23:19:22.632Z,9.38
2023-01-09T23:21:50.895Z,9.43
2023-01-09T23:24:20.760Z,9.38
2023-01-09T23:26:49.898Z,9.61
2023-01-09T23:29:18.147Z,9.78
2023-01-09T23:31:46.921Z,9.78
2023-01-09T23:34:16.716Z,9.40
2023-01-09T23:36:47.673Z,9.28
2023-01-09T23:39:16.141Z,9.09
2023-01-09T23:42:03.363Z,8.84
2023-01-09T23:44:31.695Z,8.84
2023-01-09T23:47:00.209Z,8.94
2023-01-09T23:49:28.657Z,8.67
2023-01-09T23:51:57.406Z,8.72
2023-01-09T23:54:25.902Z,8.67
2023-01-09T23:56:56.947Z,8.62
2023-01-09T23:59:25.253Z,8.71
